Time;durP1;ratioP1;P1;durP2;ratioP2;P2;SDS_P1;SDS_P2;PMS_P1;PMS_P2;Temp;Humidity;BMP_temperature;BMP_pressure;BME280_temperature;BME280_humidity;BME280_pressure;Samples;Min_cycle;Max_cycle;Signal;HPM_P1;HPM_P2
2021/04/23 00:00:58;;;;;;;10.30;5.85;;;7.00;1.00;;;;;;5047791;28;20263;-79
2021/04/23 00:03:29;;;;;;;10.52;5.93;;;7.00;1.00;;;;;;5046868;28;20273;-79
2021/04/23 00:06:04;;;;;;;13.48;5.85;;;7.00;1.00;;;;;;5031474;28;20207;-79
2021/04/23 00:08:32;;;;;;;7.70;5.65;;;6.90;1.00;;;;;;5029300;28;20225;-81
2021/04/23 00:11:00;;;;;;;7.55;5.50;;;6.90;1.00;;;;;;5027749;28;20234;-79
2021/04/23 00:13:27;;;;;;;10.05;5.43;;;6.90;1.00;;;;;;5032995;28;20250;-78
2021/04/23 00:15:55;;;;;;;8.45;5.03;;;6.90;1.00;;;;;;5046574;28;20217;-77
2021/04/23 00:18:22;;;;;;;9.13;6.05;;;6.90;1.00;;;;;;5046171;28;20294;-79
2021/04/23 00:20:53;;;;;;;10.88;6.30;;;7.00;1.00;;;;;;5026604;28;20210;-77
2021/04/23 00:23:24;;;;;;;11.45;5.97;;;7.00;1.00;;;;;;5031665;28;20236;-78
2021/04/23 00:25:51;;;;;;;13.27;5.75;;;7.00;1.00;;;;;;5025254;28;20655;-80
2021/04/23 00:28:21;;;;;;;11.60;6.55;;;7.10;1.00;;;;;;5026603;28;20230;-79
2021/04/23 00:30:50;;;;;;;9.85;5.50;;;7.10;1.00;;;;;;5014303;28;20249;-81
2021/04/23 00:33:23;;;;;;;9.27;5.05;;;7.10;1.00;;;;;;5034188;28;20226;-79
2021/04/23 00:35:50;;;;;;;6.85;5.45;;;7.10;1.00;;;;;;5030367;28;20545;-80
2021/04/23 00:38:22;;;;;;;10.93;6.07;;;7.10;1.00;;;;;;5034468;28;20233;-79
2021/04/23 00:40:56;;;;;;;7.53;4.90;;;7.10;1.00;;;;;;5015429;28;20236;-79
2021/04/23 00:43:26;;;;;;;8.98;6.20;;;7.10;1.00;;;;;;5036793;28;20226;-80
2021/04/23 00:45:54;;;;;;;14.38;6.15;;;7.10;1.00;;;;;;5018200;28;20238;-80
2021/04/23 00:48:26;;;;;;;12.13;6.88;;;7.10;1.00;;;;;;5027218;28;20230;-79
2021/04/23 00:50:55;;;;;;;12.25;6.28;;;7.10;1.00;;;;;;5051019;28;20238;-80
2021/04/23 00:53:25;;;;;;;13.55;6.88;;;7.10;1.00;;;;;;5053348;28;20202;-80
2021/04/23 00:55:57;;;;;;;11.95;5.93;;;7.00;1.00;;;;;;5048224;28;20217;-80
2021/04/23 00:58:29;;;;;;;12.02;5.85;;;7.00;1.00;;;;;;5052563;28;20226;-79
2021/04/23 01:00:58;;;;;;;10.80;5.43;;;6.90;1.00;;;;;;5030502;28;20238;-77
2021/04/23 01:03:25;;;;;;;11.77;6.28;;;6.80;1.00;;;;;;5028167;28;20281;-80
2021/04/23 01:05:53;;;;;;;12.93;5.60;;;6.70;1.00;;;;;;5039326;28;20215;-79
2021/04/23 01:08:24;;;;;;;17.25;6.13;;;6.70;1.00;;;;;;5024356;28;20235;-79
2021/04/23 01:10:53;;;;;;;9.13;6.32;;;6.60;1.00;;;;;;5026147;28;20246;-79
2021/04/23 01:13:20;;;;;;;9.82;5.28;;;6.60;1.00;;;;;;5039823;28;20293;-78
2021/04/23 01:15:46;;;;;;;11.02;6.20;;;6.60;1.00;;;;;;5043095;28;20313;-77
2021/04/23 01:18:13;;;;;;;10.85;6.97;;;6.50;1.00;;;;;;5044323;28;20232;-77
2021/04/23 01:20:40;;;;;;;9.70;6.18;;;6.40;1.00;;;;;;5047012;28;20253;-78
2021/04/23 01:23:44;;;;;;;9.77;6.07;;;6.40;1.00;;;;;;5058156;28;20558;-79
2021/04/23 01:26:39;;;;;;;9.80;6.07;;;6.40;1.00;;;;;;5034685;28;20430;-80
2021/04/23 01:29:11;;;;;;;12.05;7.15;;;6.30;1.00;;;;;;5044271;28;20242;-78
2021/04/23 01:31:44;;;;;;;14.73;6.68;;;6.30;1.00;;;;;;5043406;28;20242;-80
2021/04/23 01:34:14;;;;;;;18.70;7.93;;;6.30;1.00;;;;;;5044229;28;20237;-79
2021/04/23 01:36:42;;;;;;;11.02;6.82;;;6.20;1.00;;;;;;5038861;28;20229;-82
2021/04/23 01:39:12;;;;;;;10.63;6.93;;;6.20;1.00;;;;;;5021855;28;20761;-79
2021/04/23 01:41:39;;;;;;;7.93;6.13;;;6.20;1.00;;;;;;5036929;28;20246;-79
2021/04/23 01:44:07;;;;;;;12.27;6.72;;;6.20;1.00;;;;;;5020987;28;20225;-79
2021/04/23 01:46:37;;;;;;;11.65;6.95;;;6.20;1.00;;;;;;5038852;28;20210;-80
2021/04/23 01:49:27;;;;;;;14.40;7.50;;;6.20;1.00;;;;;;5039525;28;20225;-81
2021/04/23 01:51:56;;;;;;;10.40;6.55;;;6.30;1.00;;;;;;5019447;28;20238;-80
2021/04/23 01:54:25;;;;;;;10.57;6.30;;;6.30;1.00;;;;;;5041721;28;20218;-79
2021/04/23 01:56:52;;;;;;;13.80;7.43;;;6.40;1.00;;;;;;5043219;28;20218;-79
2021/04/23 01:59:22;;;;;;;9.05;7.22;;;6.40;1.00;;;;;;5024548;28;20827;-79
2021/04/23 02:01:48;;;;;;;12.93;6.15;;;6.40;1.00;;;;;;5020091;28;20597;-81
2021/04/23 02:04:16;;;;;;;14.60;7.18;;;6.40;1.00;;;;;;5035719;28;20670;-79
2021/04/23 02:06:47;;;;;;;17.98;8.15;;;6.40;1.00;;;;;;5039685;28;20230;-78
2021/04/23 02:09:16;;;;;;;10.25;7.03;;;6.50;1.00;;;;;;5039420;28;21149;-79
2021/04/23 02:11:46;;;;;;;15.13;7.30;;;6.50;1.00;;;;;;5026714;28;20253;-80
2021/04/23 02:14:13;;;;;;;12.60;6.53;;;6.50;1.00;;;;;;5047779;28;20217;-79
2021/04/23 02:16:41;;;;;;;12.32;6.78;;;6.50;1.00;;;;;;5047855;28;20217;-81
2021/04/23 02:19:09;;;;;;;11.65;6.13;;;6.60;1.00;;;;;;5038105;28;20317;-81
2021/04/23 02:21:36;;;;;;;12.70;7.22;;;6.60;1.00;;;;;;5039802;28;20234;-79
2021/04/23 02:24:05;;;;;;;16.98;7.43;;;6.60;1.00;;;;;;5026030;28;20226;-80
2021/04/23 02:26:33;;;;;;;9.70;5.88;;;6.60;1.00;;;;;;5050287;28;20257;-79
2021/04/23 02:29:00;;;;;;;13.63;6.55;;;6.60;1.00;;;;;;5036660;28;20233;-80
2021/04/23 02:31:30;;;;;;;12.18;7.65;;;6.60;1.00;;;;;;5038462;28;20276;-80
2021/04/23 02:34:03;;;;;;;9.82;7.25;;;6.60;1.00;;;;;;5019064;28;20223;-79
2021/04/23 02:36:30;;;;;;;13.15;6.95;;;6.60;1.00;;;;;;5031720;28;20321;-80
2021/04/23 02:38:56;;;;;;;13.93;8.00;;;6.60;1.00;;;;;;5034963;28;21397;-80
2021/04/23 02:41:23;;;;;;;15.43;8.05;;;6.60;1.00;;;;;;5034467;28;20246;-79
2021/04/23 02:43:54;;;;;;;11.20;7.15;;;6.60;1.00;;;;;;5035407;28;20225;-81
2021/04/23 02:46:24;;;;;;;15.02;7.90;;;6.60;1.00;;;;;;5034702;28;20443;-77
2021/04/23 02:48:52;;;;;;;13.40;7.25;;;6.60;1.00;;;;;;5034246;28;20716;-79
2021/04/23 02:51:24;;;;;;;16.48;8.30;;;6.60;1.00;;;;;;5016995;28;20294;-79
2021/04/23 02:53:52;;;;;;;11.85;6.63;;;6.60;1.00;;;;;;5018144;28;20289;-80
2021/04/23 02:56:21;;;;;;;15.32;7.50;;;6.60;1.00;;;;;;5032969;28;20219;-79
2021/04/23 02:58:48;;;;;;;14.85;7.18;;;6.60;1.00;;;;;;5039019;28;20222;-81
2021/04/23 03:01:17;;;;;;;14.23;6.53;;;6.60;1.00;;;;;;5014779;28;20230;-82
2021/04/23 03:03:45;;;;;;;18.13;7.85;;;6.60;1.00;;;;;;5035163;28;20222;-79
2021/04/23 03:06:16;;;;;;;14.23;7.32;;;6.60;1.00;;;;;;5024639;28;20222;-79
2021/04/23 03:08:49;;;;;;;13.65;7.88;;;6.60;1.00;;;;;;5030066;28;20232;-79
2021/04/23 03:11:19;;;;;;;7.57;6.20;;;6.60;1.00;;;;;;5025562;28;20234;-78
2021/04/23 03:13:48;;;;;;;15.15;7.70;;;6.60;1.00;;;;;;5031444;28;20218;-79
2021/04/23 03:16:14;;;;;;;12.98;7.43;;;6.60;1.00;;;;;;5026351;28;20246;-77
2021/04/23 03:18:43;;;;;;;13.52;7.47;;;6.60;1.00;;;;;;5021707;28;20222;-78
2021/04/23 03:21:12;;;;;;;10.38;7.78;;;6.60;1.00;;;;;;5020276;28;20234;-79
2021/04/23 03:23:40;;;;;;;15.35;7.82;;;6.60;1.00;;;;;;5029223;28;20222;-80
2021/04/23 03:26:09;;;;;;;11.15;7.22;;;6.60;1.00;;;;;;5026687;28;20282;-78
2021/04/23 03:28:38;;;;;;;10.98;7.03;;;6.50;1.00;;;;;;5028133;28;20223;-78
2021/04/23 03:31:08;;;;;;;15.18;7.57;;;6.60;1.00;;;;;;5024491;28;21904;-79
2021/04/23 03:33:35;;;;;;;15.75;7.88;;;6.60;1.00;;;;;;5012412;28;20357;-80
2021/04/23 03:36:05;;;;;;;11.60;6.95;;;6.60;1.00;;;;;;5025049;28;20517;-77
2021/04/23 03:38:36;;;;;;;12.35;8.02;;;6.60;1.00;;;;;;5032239;28;21058;-80
2021/04/23 03:41:08;;;;;;;15.20;8.20;;;6.50;1.00;;;;;;5030315;28;20723;-81
2021/04/23 03:43:38;;;;;;;12.15;6.97;;;6.50;1.00;;;;;;5035044;28;20304;-79
2021/04/23 03:46:07;;;;;;;10.50;7.65;;;6.50;1.00;;;;;;5012864;28;20238;-81
2021/04/23 03:48:34;;;;;;;17.15;7.75;;;6.50;1.00;;;;;;5035286;28;20226;-79
2021/04/23 03:51:01;;;;;;;14.68;8.02;;;6.40;1.00;;;;;;5037861;28;20241;-80
2021/04/23 03:53:28;;;;;;;12.20;7.72;;;6.40;1.00;;;;;;5021695;28;20226;-80
2021/04/23 03:55:55;;;;;;;19.13;9.57;;;6.50;1.00;;;;;;5033429;28;20254;-80
2021/04/23 03:58:23;;;;;;;14.23;8.02;;;6.40;1.00;;;;;;5026347;28;20227;-80
2021/04/23 04:00:52;;;;;;;14.15;7.45;;;6.40;1.00;;;;;;5014539;28;20254;-80
2021/04/23 04:03:19;;;;;;;14.75;7.93;;;6.40;1.00;;;;;;5036555;28;20234;-80
2021/04/23 04:05:47;;;;;;;13.60;7.57;;;6.40;1.00;;;;;;5040319;28;20218;-80
2021/04/23 04:08:14;;;;;;;20.40;8.77;;;6.50;1.00;;;;;;5037439;28;20226;-79
2021/04/23 04:10:42;;;;;;;15.70;8.90;;;6.50;1.00;;;;;;5034545;28;20237;-80
2021/04/23 04:13:09;;;;;;;14.60;8.25;;;6.50;1.00;;;;;;5013735;28;20358;-76
2021/04/23 04:15:38;;;;;;;22.10;10.73;;;6.50;1.00;;;;;;5041460;28;20242;-75
2021/04/23 04:18:07;;;;;;;16.42;9.40;;;6.60;1.00;;;;;;5024238;28;20234;-76
2021/04/23 04:20:35;;;;;;;18.77;8.70;;;6.50;1.00;;;;;;5047359;28;20237;-76
2021/04/23 04:23:04;;;;;;;12.90;7.97;;;6.60;1.00;;;;;;5026848;28;20317;-78
2021/04/23 04:25:35;;;;;;;20.40;8.13;;;6.50;1.00;;;;;;5033400;28;21429;-75
2021/04/23 04:28:01;;;;;;;20.48;9.65;;;6.50;1.00;;;;;;5046806;28;20253;-77
2021/04/23 04:30:29;;;;;;;12.63;8.15;;;6.50;1.00;;;;;;5045636;28;20249;-76
2021/04/23 04:32:58;;;;;;;15.13;8.20;;;6.60;1.00;;;;;;5036697;28;20246;-77
2021/04/23 04:35:25;;;;;;;18.45;12.15;;;6.60;1.00;;;;;;5028801;28;20227;-76
2021/04/23 04:37:52;;;;;;;15.55;8.43;;;6.60;1.00;;;;;;5026890;28;20249;-77
2021/04/23 04:40:19;;;;;;;15.07;8.50;;;6.60;1.00;;;;;;5021829;28;20226;-75
2021/04/23 04:42:46;;;;;;;13.75;7.80;;;6.60;1.00;;;;;;5030974;28;20226;-74
2021/04/23 04:45:17;;;;;;;16.17;9.52;;;6.60;1.00;;;;;;5044775;28;20242;-73
2021/04/23 04:47:45;;;;;;;14.80;8.30;;;6.60;1.00;;;;;;5048285;28;20206;-73
2021/04/23 04:50:15;;;;;;;14.77;7.78;;;6.60;1.00;;;;;;5043224;28;20225;-73
2021/04/23 04:52:44;;;;;;;18.80;7.95;;;6.60;1.00;;;;;;5046987;28;20215;-74
2021/04/23 04:55:13;;;;;;;15.82;7.38;;;6.60;1.00;;;;;;5044976;28;20219;-73
2021/04/23 04:57:40;;;;;;;13.82;7.47;;;6.50;1.00;;;;;;5044752;28;20221;-73
2021/04/23 05:00:09;;;;;;;14.30;7.00;;;6.50;1.00;;;;;;5020927;28;20297;-73
2021/04/23 05:02:35;;;;;;;12.57;7.70;;;6.50;1.00;;;;;;5038760;28;20226;-75
2021/04/23 05:05:05;;;;;;;17.95;8.48;;;6.50;1.00;;;;;;5023879;28;20309;-78
2021/04/23 05:07:32;;;;;;;11.52;8.48;;;6.60;1.00;;;;;;5023067;28;20225;-75
2021/04/23 05:09:58;;;;;;;18.73;8.20;;;6.70;1.00;;;;;;5014958;28;20289;-76
2021/04/23 05:12:25;;;;;;;12.15;7.57;;;6.70;1.00;;;;;;5022674;28;20222;-74
2021/04/23 05:14:54;;;;;;;16.95;8.10;;;6.80;1.00;;;;;;5025288;28;20252;-74
2021/04/23 05:17:20;;;;;;;17.65;7.88;;;6.80;1.00;;;;;;5029882;28;20222;-75
2021/04/23 05:19:52;;;;;;;16.15;8.18;;;6.80;1.00;;;;;;5027726;28;20230;-77
2021/04/23 05:22:25;;;;;;;16.45;8.30;;;6.90;1.00;;;;;;5009096;28;20234;-76
2021/04/23 05:24:52;;;;;;;15.40;8.38;;;6.90;1.00;;;;;;5008817;28;20233;-76
2021/04/23 05:27:19;;;;;;;12.95;8.35;;;6.90;1.00;;;;;;5022634;28;20214;-74
2021/04/23 05:29:46;;;;;;;13.73;7.75;;;6.90;1.00;;;;;;5031407;28;20237;-76
2021/04/23 05:32:16;;;;;;;15.73;9.23;;;6.90;1.00;;;;;;5032633;28;20223;-77
2021/04/23 05:34:45;;;;;;;15.63;7.47;;;6.90;1.00;;;;;;5034123;28;20227;-76
2021/04/23 05:37:12;;;;;;;14.57;7.53;;;6.90;1.00;;;;;;5031271;28;20327;-75
2021/04/23 05:39:44;;;;;;;12.75;8.70;;;7.00;1.00;;;;;;5035837;28;21103;-75
2021/04/23 05:42:15;;;;;;;17.55;9.00;;;7.00;1.00;;;;;;5026887;28;20234;-76
2021/04/23 05:44:48;;;;;;;16.05;8.32;;;7.00;1.00;;;;;;5038588;28;20228;-76
2021/04/23 05:47:15;;;;;;;14.27;7.85;;;7.00;1.00;;;;;;5040128;28;20218;-77
2021/04/23 05:49:41;;;;;;;12.32;7.60;;;7.10;1.00;;;;;;5028074;28;23368;-78
2021/04/23 05:52:09;;;;;;;11.52;7.75;;;7.00;1.00;;;;;;5025348;28;20283;-77
2021/04/23 05:54:46;;;;;;;13.82;8.40;;;7.10;1.00;;;;;;5042610;28;20214;-77
2021/04/23 05:57:13;;;;;;;12.43;7.25;;;7.10;1.00;;;;;;5042305;28;20219;-77
2021/04/23 05:59:40;;;;;;;13.63;7.80;;;7.10;1.00;;;;;;5036272;28;20257;-76
2021/04/23 06:02:09;;;;;;;13.95;7.63;;;7.20;1.00;;;;;;5019768;28;20298;-77
2021/04/23 06:04:39;;;;;;;15.20;7.85;;;7.30;1.00;;;;;;5039099;28;20210;-75
2021/04/23 06:07:06;;;;;;;15.85;8.32;;;7.40;1.00;;;;;;5036820;28;20293;-77
2021/04/23 06:09:33;;;;;;;19.50;8.10;;;7.40;1.00;;;;;;5017340;28;20242;-75
2021/04/23 06:12:00;;;;;;;11.63;6.70;;;7.50;1.00;;;;;;5034718;28;20230;-76
2021/04/23 06:14:27;;;;;;;19.15;7.25;;;7.60;1.00;;;;;;5006043;28;20981;-77
2021/04/23 06:16:54;;;;;;;13.70;8.13;;;7.60;1.00;;;;;;5029531;28;20234;-77
2021/04/23 06:19:21;;;;;;;16.08;7.18;;;7.70;1.00;;;;;;5030741;28;21001;-75
2021/04/23 06:21:51;;;;;;;10.00;6.05;;;7.80;1.00;;;;;;5008495;28;21446;-78
2021/04/23 06:24:17;;;;;;;19.15;8.15;;;7.90;1.00;;;;;;5022000;28;20717;-77
2021/04/23 06:26:44;;;;;;;10.70;7.55;;;7.90;1.00;;;;;;5017245;28;20935;-79
2021/04/23 06:29:11;;;;;;;14.52;6.85;;;7.90;1.00;;;;;;5000335;28;20305;-78
2021/04/23 06:31:38;;;;;;;14.95;7.47;;;7.90;1.00;;;;;;5024125;28;21894;-76
2021/04/23 06:34:05;;;;;;;14.70;8.20;;;8.00;1.00;;;;;;5029766;28;20729;-76
2021/04/23 06:36:32;;;;;;;15.60;7.38;;;8.00;1.00;;;;;;5023209;28;20320;-77
2021/04/23 06:38:58;;;;;;;10.57;6.35;;;8.00;1.00;;;;;;5008256;28;20222;-78
2021/04/23 06:41:25;;;;;;;14.90;6.40;;;8.10;1.00;;;;;;5027497;28;20242;-79
2021/04/23 06:43:53;;;;;;;13.02;6.50;;;8.10;1.00;;;;;;5007699;28;20233;-79
2021/04/23 06:46:21;;;;;;;16.88;7.22;;;8.20;1.00;;;;;;5025326;28;20223;-79
2021/04/23 06:48:51;;;;;;;12.20;6.20;;;8.30;1.00;;;;;;5005457;28;20334;-78
2021/04/23 06:51:20;;;;;;;13.43;6.57;;;8.40;1.00;;;;;;5009296;28;20840;-78
2021/04/23 06:53:46;;;;;;;11.32;6.65;;;8.60;1.00;;;;;;5028484;28;20234;-76
2021/04/23 06:56:13;;;;;;;12.35;6.63;;;8.70;1.00;;;;;;5029715;28;20222;-76
2021/04/23 06:58:43;;;;;;;12.30;6.05;;;8.70;1.00;;;;;;5011855;28;20222;-76
2021/04/23 07:01:13;;;;;;;13.90;6.82;;;8.70;1.00;;;;;;5030865;28;20231;-77
2021/04/23 07:03:42;;;;;;;11.07;6.13;;;8.70;1.00;;;;;;5023224;28;20238;-77
2021/04/23 07:06:12;;;;;;;13.43;6.55;;;8.50;1.00;;;;;;5022766;28;20226;-76
2021/04/23 07:08:40;;;;;;;14.10;5.95;;;8.40;1.00;;;;;;5032880;28;20238;-75
2021/04/23 07:11:07;;;;;;;14.00;7.28;;;8.30;1.00;;;;;;5017533;28;20223;-77
2021/04/23 07:13:34;;;;;;;19.23;7.63;;;8.20;1.00;;;;;;5022347;28;20226;-78
2021/04/23 07:16:01;;;;;;;11.45;5.50;;;8.30;1.00;;;;;;5021546;28;21049;-77
2021/04/23 07:18:27;;;;;;;17.85;6.05;;;8.30;1.00;;;;;;5018648;28;20244;-77
2021/04/23 07:20:55;;;;;;;6.68;5.10;;;8.20;1.00;;;;;;5020646;28;20262;-78
2021/04/23 07:23:21;;;;;;;8.55;6.15;;;8.40;1.00;;;;;;5020497;28;20310;-78
2021/04/23 07:25:48;;;;;;;8.70;6.20;;;8.40;1.00;;;;;;5016452;28;20237;-77
2021/04/23 07:28:15;;;;;;;7.38;4.50;;;8.60;1.00;;;;;;5001860;28;20937;-77
2021/04/23 07:30:43;;;;;;;7.57;4.70;;;8.70;1.00;;;;;;5005465;28;20226;-78
2021/04/23 07:33:14;;;;;;;9.13;5.25;;;8.80;1.00;;;;;;5030693;28;20749;-77
2021/04/23 07:35:41;;;;;;;9.93;5.20;;;8.80;1.00;;;;;;5035473;28;20273;-79
2021/04/23 07:38:09;;;;;;;8.30;4.65;;;8.80;1.00;;;;;;5019597;28;20317;-78
2021/04/23 07:40:35;;;;;;;10.27;4.32;;;8.90;1.00;;;;;;5004498;28;20233;-79
2021/04/23 07:43:03;;;;;;;8.40;5.38;;;9.10;1.00;;;;;;5016189;28;20218;-78
2021/04/23 07:45:31;;;;;;;10.07;5.20;;;9.10;1.00;;;;;;5001716;28;20538;-78
2021/04/23 07:48:00;;;;;;;9.35;6.05;;;9.10;1.00;;;;;;5001055;28;20889;-78
2021/04/23 07:50:31;;;;;;;7.85;4.57;;;9.20;1.00;;;;;;5023745;28;20239;-79
2021/04/23 07:52:57;;;;;;;9.85;5.07;;;9.30;1.00;;;;;;5022881;28;20223;-81
2021/04/23 07:55:25;;;;;;;14.05;6.10;;;9.30;1.00;;;;;;5032044;28;20222;-77
2021/04/23 07:57:53;;;;;;;7.60;4.13;;;9.20;1.00;;;;;;5031209;28;20211;-78
2021/04/23 08:00:24;;;;;;;11.00;4.95;;;9.20;1.00;;;;;;5024869;28;20234;-87
2021/04/23 08:02:56;;;;;;;9.85;5.00;;;9.10;1.00;;;;;;5023315;28;20304;-79
2021/04/23 08:05:25;;;;;;;7.72;4.78;;;9.00;1.00;;;;;;5034942;28;20214;-84
2021/04/23 08:07:54;;;;;;;7.40;4.90;;;9.10;1.00;;;;;;5016105;28;20254;-86
2021/04/23 08:10:22;;;;;;;7.88;5.35;;;9.10;1.00;;;;;;5031114;28;20250;-82
2021/04/23 08:12:53;;;;;;;13.23;5.70;;;9.20;1.00;;;;;;5018346;28;21092;-84
2021/04/23 08:15:21;;;;;;;6.28;4.20;;;9.20;1.00;;;;;;5021756;28;20227;-79
2021/04/23 08:17:48;;;;;;;11.32;5.55;;;9.20;1.00;;;;;;5018946;28;20273;-82
2021/04/23 08:20:15;;;;;;;11.45;5.10;;;9.40;1.00;;;;;;5022684;28;20225;-79
2021/04/23 08:22:43;;;;;;;12.10;5.93;;;9.50;1.00;;;;;;5004363;28;20228;-78
2021/04/23 08:25:16;;;;;;;10.23;4.57;;;9.60;1.00;;;;;;5024604;28;20246;-81
2021/04/23 08:27:43;;;;;;;7.20;4.53;;;9.50;1.00;;;;;;5033767;28;20242;-82
2021/04/23 08:30:24;;;;;;;7.97;4.63;;;9.70;1.00;;;;;;5011543;28;20232;-72
2021/04/23 08:32:54;;;;;;;11.48;4.10;;;9.90;1.00;;;;;;5007602;28;20239;-73
2021/04/23 08:35:21;;;;;;;11.05;5.03;;;10.00;1.00;;;;;;5007347;28;20223;-77
2021/04/23 08:37:47;;;;;;;10.60;4.93;;;10.00;1.00;;;;;;5031738;28;20220;-77
2021/04/23 08:40:16;;;;;;;12.00;4.97;;;10.10;1.00;;;;;;5028064;28;20217;-77
2021/04/23 08:42:43;;;;;;;8.40;4.53;;;10.30;1.00;;;;;;5035305;28;20233;-78
2021/04/23 08:45:13;;;;;;;16.70;5.15;;;10.30;1.00;;;;;;5050907;28;20428;-77
2021/04/23 08:47:43;;;;;;;9.93;4.20;;;10.30;1.00;;;;;;5051079;28;20216;-77
2021/04/23 08:50:12;;;;;;;9.85;4.82;;;10.50;1.00;;;;;;5049261;28;20236;-77
2021/04/23 08:52:41;;;;;;;7.83;4.90;;;10.70;1.00;;;;;;5041256;28;20233;-77
2021/04/23 08:55:10;;;;;;;10.30;4.67;;;11.10;1.00;;;;;;5048854;28;20419;-77
2021/04/23 08:57:40;;;;;;;12.73;5.43;;;11.20;1.00;;;;;;5050251;28;20432;-77
2021/04/23 09:00:08;;;;;;;14.27;4.70;;;11.30;1.00;;;;;;5049459;28;20274;-77
2021/04/23 09:02:36;;;;;;;8.70;4.93;;;11.30;1.00;;;;;;5047618;28;20440;-78
2021/04/23 09:05:05;;;;;;;12.97;5.20;;;11.60;1.00;;;;;;5030457;28;20428;-77
2021/04/23 09:07:35;;;;;;;10.77;4.47;;;12.00;1.00;;;;;;5037203;28;20441;-77
2021/04/23 09:10:07;;;;;;;8.60;4.40;;;12.00;1.00;;;;;;5045770;28;20440;-79
2021/04/23 09:12:34;;;;;;;10.17;4.83;;;11.60;1.00;;;;;;5047384;28;20422;-77
2021/04/23 09:15:02;;;;;;;11.40;4.30;;;11.50;1.00;;;;;;5025393;28;20411;-76
2021/04/23 09:17:29;;;;;;;5.57;4.30;;;11.70;1.00;;;;;;5044696;28;20449;-75
2021/04/23 09:19:58;;;;;;;8.50;4.77;;;11.80;1.00;;;;;;5044792;28;20253;-78
2021/04/23 09:22:31;;;;;;;6.90;3.97;;;12.20;1.00;;;;;;5029975;28;20445;-77
2021/04/23 09:25:05;;;;;;;17.20;13.07;;;12.50;1.00;;;;;;5048877;28;20452;-77
2021/04/23 09:27:33;;;;;;;12.33;4.43;;;12.50;1.00;;;;;;5050463;28;20456;-78
2021/04/23 09:30:03;;;;;;;9.30;3.83;;;12.60;1.00;;;;;;5045484;28;20467;-78
2021/04/23 09:32:36;;;;;;;6.30;4.60;;;13.50;1.00;;;;;;5045595;28;20407;-79
2021/04/23 09:35:11;;;;;;;11.27;4.37;;;14.70;1.00;;;;;;5053518;28;20740;-83
2021/04/23 09:37:43;;;;;;;8.90;4.40;;;15.90;1.00;;;;;;5053498;28;20421;-80
2021/04/23 09:40:13;;;;;;;6.80;3.73;;;15.40;1.00;;;;;;5051446;28;21989;-81
2021/04/23 09:42:45;;;;;;;8.80;4.17;;;15.00;1.00;;;;;;5050535;28;20461;-76
2021/04/23 09:45:15;;;;;;;7.50;3.93;;;15.90;1.00;;;;;;5034027;28;20450;-79
2021/04/23 09:47:41;;;;;;;9.70;3.83;;;16.60;1.00;;;;;;5051002;28;20406;-79
2021/04/23 09:50:09;;;;;;;7.17;3.03;;;17.60;1.00;;;;;;5049024;28;20420;-79
2021/04/23 09:52:50;;;;;;;5.37;3.80;;;18.90;1.00;;;;;;5048751;28;20673;-79
2021/04/23 09:55:18;;;;;;;7.80;4.00;;;20.10;1.00;;;;;;5048107;28;20420;-79
2021/04/23 09:57:50;;;;;;;5.90;3.80;;;20.80;1.00;;;;;;5048383;28;20495;-78
2021/04/23 10:00:24;;;;;;;6.43;3.77;;;20.60;1.00;;;;;;5044192;28;20427;-79
2021/04/23 10:02:53;;;;;;;7.53;3.80;;;20.90;1.00;;;;;;5045979;28;20396;-78
2021/04/23 10:05:31;;;;;;;6.40;3.70;;;20.50;1.00;;;;;;5032848;28;20426;-79
2021/04/23 10:07:58;;;;;;;5.93;3.43;;;20.50;1.00;;;;;;5035966;28;20398;-80
2021/04/23 10:10:25;;;;;;;5.10;3.30;;;21.40;1.00;;;;;;5032077;28;20450;-78
2021/04/23 10:12:53;;;;;;;3.90;2.73;;;22.60;1.00;;;;;;5045486;28;20418;-78
2021/04/23 10:15:21;;;;;;;6.30;3.70;;;23.20;1.00;;;;;;5047403;28;20508;-78
2021/04/23 10:17:50;;;;;;;8.47;3.70;;;23.30;1.00;;;;;;5045920;28;20432;-78
2021/04/23 10:20:24;;;;;;;7.77;3.50;;;22.00;1.00;;;;;;5045842;28;20454;-78
2021/04/23 10:22:52;;;;;;;9.13;5.03;;;20.50;1.00;;;;;;5026391;28;20457;-79
2021/04/23 10:25:21;;;;;;;10.13;4.17;;;19.80;1.00;;;;;;5046653;28;20417;-79
2021/04/23 10:27:49;;;;;;;6.70;3.53;;;19.10;1.00;;;;;;5027163;28;20415;-77
2021/04/23 10:30:18;;;;;;;3.83;2.87;;;18.90;1.00;;;;;;5040930;28;20505;-78
2021/04/23 10:32:47;;;;;;;6.53;3.50;;;19.30;1.00;;;;;;5033658;28;22661;-80
2021/04/23 10:35:14;;;;;;;6.20;3.10;;;20.30;1.00;;;;;;5024534;28;20498;-79
2021/04/23 10:37:42;;;;;;;7.37;3.33;;;21.30;1.00;;;;;;5023474;28;21474;-76
2021/04/23 10:40:10;;;;;;;5.70;3.23;;;22.30;1.00;;;;;;5027112;28;20460;-81
2021/04/23 10:42:46;;;;;;;7.27;3.10;;;23.00;1.00;;;;;;5033277;28;20396;-81
2021/04/23 10:45:33;;;;;;;6.83;3.03;;;22.40;1.00;;;;;;5026906;28;20456;-81
2021/04/23 10:48:00;;;;;;;8.13;3.80;;;21.80;1.00;;;;;;5040311;28;20896;-82
2021/04/23 10:50:28;;;;;;;4.50;3.17;;;22.80;1.00;;;;;;5039135;28;20429;-80
2021/04/23 10:53:06;;;;;;;4.90;3.33;;;23.70;1.00;;;;;;5032627;28;20468;-80
2021/04/23 10:55:44;;;;;;;4.97;2.60;;;24.40;1.00;;;;;;5039591;28;20483;-82
2021/04/23 10:58:14;;;;;;;4.93;2.70;;;24.60;1.00;;;;;;5038054;28;20459;-82
2021/04/23 11:00:43;;;;;;;9.10;3.30;;;24.70;1.00;;;;;;5038828;28;20414;-79
2021/04/23 11:03:23;;;;;;;7.60;3.80;;;25.30;1.00;;;;;;5019593;28;20539;-78
2021/04/23 11:05:50;;;;;;;8.23;3.43;;;24.40;1.00;;;;;;5037045;28;20449;-82
2021/04/23 11:08:17;;;;;;;4.70;3.03;;;23.10;1.00;;;;;;5023025;28;20453;-80
2021/04/23 11:11:17;;;;;;;6.77;2.83;;;21.50;1.00;;;;;;5022505;28;20533;-81
2021/04/23 11:13:50;;;;;;;5.80;3.10;;;20.20;1.00;;;;;;5021797;28;20447;-80
2021/04/23 11:16:31;;;;;;;6.07;3.10;;;19.50;1.00;;;;;;5021488;28;20453;-78
2021/04/23 11:19:17;;;;;;;7.03;3.10;;;20.50;1.00;;;;;;5022990;28;20464;-80
2021/04/23 11:21:44;;;;;;;5.13;2.63;;;20.40;1.00;;;;;;5030537;28;20458;-80
2021/04/23 11:24:12;;;;;;;8.67;3.43;;;19.20;1.00;;;;;;5031474;28;20539;-78
2021/04/23 11:27:03;;;;;;;7.07;2.80;;;18.10;1.00;;;;;;5032087;28;20516;-76
2021/04/23 11:29:32;;;;;;;6.20;3.03;;;19.30;1.00;;;;;;5023031;28;21901;-78
2021/04/23 11:32:16;;;;;;;7.23;3.00;;;21.70;1.00;;;;;;5013081;28;20471;-78
2021/04/23 11:34:45;;;;;;;4.93;3.33;;;22.90;1.00;;;;;;5012065;28;21731;-77
2021/04/23 11:37:13;;;;;;;4.83;2.47;;;21.80;1.00;;;;;;5004588;28;20664;-76
2021/04/23 11:39:43;;;;;;;5.60;3.07;;;22.00;1.00;;;;;;5009622;28;20457;-76
2021/04/23 11:42:21;;;;;;;11.23;5.17;;;23.10;1.00;;;;;;5014951;28;20464;-75
2021/04/23 11:45:09;;;;;;;3.80;2.30;;;24.30;1.00;;;;;;5017932;28;20480;-76
2021/04/23 11:47:37;;;;;;;4.80;2.47;;;24.70;1.00;;;;;;4997674;28;20491;-77
2021/04/23 11:50:23;;;;;;;4.80;2.70;;;24.70;1.00;;;;;;5014238;28;20533;-76
2021/04/23 11:52:51;;;;;;;3.43;2.67;;;24.80;1.00;;;;;;5016073;28;20450;-74
2021/04/23 11:55:19;;;;;;;4.20;2.53;;;23.50;1.00;;;;;;5018533;28;20466;-78
2021/04/23 11:57:48;;;;;;;5.57;3.07;;;21.90;1.00;;;;;;5031682;28;21377;-75
2021/04/23 12:00:18;;;;;;;7.47;2.20;;;21.50;1.00;;;;;;5006884;28;20489;-76
2021/04/23 12:02:52;;;;;;;6.03;2.23;;;21.10;1.00;;;;;;5022773;28;20500;-75
2021/04/23 12:05:34;;;;;;;5.70;2.50;;;21.70;1.00;;;;;;5012766;28;20452;-74
2021/04/23 12:08:03;;;;;;;3.80;2.20;;;22.90;1.00;;;;;;5008329;28;20439;-76
2021/04/23 12:10:31;;;;;;;4.73;2.10;;;22.30;1.00;;;;;;5006206;28;20447;-76
2021/04/23 12:12:58;;;;;;;5.40;2.30;;;22.80;1.00;;;;;;4992774;28;21141;-74
2021/04/23 12:15:28;;;;;;;4.40;2.70;;;23.60;1.00;;;;;;5010766;28;20578;-74
2021/04/23 12:17:56;;;;;;;4.57;2.50;;;24.50;1.00;;;;;;5006542;28;20449;-75
2021/04/23 12:20:27;;;;;;;6.40;2.57;;;25.60;1.00;;;;;;4997329;28;20481;-75
2021/04/23 12:22:58;;;;;;;2.57;2.17;;;26.00;1.00;;;;;;5015175;28;20436;-76
2021/04/23 12:25:37;;;;;;;4.33;2.67;;;25.50;1.00;;;;;;5017040;28;21820;-74
2021/04/23 12:28:25;;;;;;;5.50;2.57;;;24.40;1.00;;;;;;5012782;28;21340;-74
2021/04/23 12:30:55;;;;;;;6.47;2.63;;;24.60;1.00;;;;;;5019109;28;20474;-74
2021/04/23 12:33:34;;;;;;;3.33;2.50;;;23.00;1.00;;;;;;5021675;28;20469;-75
2021/04/23 12:36:11;;;;;;;6.67;2.30;;;21.10;1.00;;;;;;5016174;28;20467;-76
2021/04/23 12:38:41;;;;;;;8.70;2.73;;;21.40;1.00;;;;;;5009428;28;20459;-77
2021/04/23 12:41:27;;;;;;;4.37;2.47;;;22.10;1.00;;;;;;5020493;28;20444;-77
2021/04/23 12:43:55;;;;;;;11.90;10.67;;;23.00;1.00;;;;;;5013449;28;20457;-75
2021/04/23 12:46:31;;;;;;;7.73;2.70;;;24.90;1.00;;;;;;5013911;28;20458;-74
2021/04/23 12:49:01;;;;;;;6.03;2.60;;;25.40;1.00;;;;;;5025441;28;20448;-80
2021/04/23 12:51:29;;;;;;;5.17;2.37;;;25.70;1.00;;;;;;5030295;28;20397;-79
2021/04/23 12:53:56;;;;;;;4.43;2.30;;;26.30;1.00;;;;;;5028833;28;20430;-80
2021/04/23 12:56:24;;;;;;;4.00;2.20;;;25.20;1.00;;;;;;5030513;28;20482;-80
2021/04/23 12:58:51;;;;;;;4.07;2.67;;;24.90;1.00;;;;;;5028843;28;20446;-79
2021/04/23 13:01:19;;;;;;;4.57;2.27;;;24.70;1.00;;;;;;5022348;28;21535;-79
2021/04/23 13:04:05;;;;;;;6.50;2.30;;;23.40;1.00;;;;;;5021523;28;20411;-81
2021/04/23 13:06:31;;;;;;;4.33;2.73;;;22.80;1.00;;;;;;5015322;28;20502;-77
2021/04/23 13:08:59;;;;;;;11.20;3.30;;;24.30;1.00;;;;;;4997201;28;20458;-80
2021/04/23 13:11:27;;;;;;;4.90;2.57;;;25.60;1.00;;;;;;5012482;28;20470;-79